Time;durP1;ratioP1;P1;durP2;ratioP2;P2;SDS_P1;SDS_P2;PMS_P1;PMS_P2;Temp;Humidity;BMP_temperature;BMP_pressure;BME280_temperature;BME280_humidity;BME280_pressure;Samples;Min_cycle;Max_cycle;Signal;HPM_P1;HPM_P2
2022/01/04 00:01:13;;;;;;;41.53;7.25;;;9.00;99.90;;;;;;5091849;28;20020;-76
2022/01/04 00:03:40;;;;;;;35.53;7.13;;;9.00;99.90;;;;;;5093542;28;20058;-77
2022/01/04 00:06:07;;;;;;;31.98;6.47;;;9.00;99.90;;;;;;5092478;28;20085;-77
2022/01/04 00:08:32;;;;;;;38.63;7.80;;;9.00;99.90;;;;;;5093963;28;20024;-77
2022/01/04 00:11:08;;;;;;;45.25;7.32;;;9.00;99.90;;;;;;5094916;28;20058;-78
2022/01/04 00:13:33;;;;;;;43.85;8.20;;;9.00;99.90;;;;;;5095576;28;20012;-76
2022/01/04 00:15:59;;;;;;;47.60;7.95;;;9.00;99.90;;;;;;5094292;28;20112;-75
2022/01/04 00:18:25;;;;;;;39.30;8.07;;;9.00;99.90;;;;;;5092675;28;20115;-76
2022/01/04 00:20:52;;;;;;;38.67;7.85;;;9.10;99.90;;;;;;5092649;28;20028;-75
2022/01/04 00:23:18;;;;;;;46.38;8.18;;;9.00;99.90;;;;;;5092261;28;20020;-76
2022/01/04 00:25:44;;;;;;;39.40;7.47;;;9.00;99.90;;;;;;5091845;28;20113;-76
2022/01/04 00:28:10;;;;;;;35.40;6.82;;;9.00;99.90;;;;;;5091213;28;20059;-78
2022/01/04 00:30:37;;;;;;;38.10;7.22;;;9.00;99.90;;;;;;5092974;28;20035;-77
2022/01/04 00:33:05;;;;;;;47.00;7.80;;;8.90;99.90;;;;;;5093291;28;20016;-76
2022/01/04 00:35:30;;;;;;;38.63;7.72;;;8.90;99.90;;;;;;5092937;28;20447;-76
2022/01/04 00:37:57;;;;;;;35.97;7.75;;;8.90;99.90;;;;;;5093231;28;20105;-77
2022/01/04 00:40:23;;;;;;;37.95;7.65;;;8.90;99.90;;;;;;5092461;28;20047;-76
2022/01/04 00:42:49;;;;;;;33.90;7.30;;;9.00;99.90;;;;;;5092775;28;20084;-76
2022/01/04 00:45:14;;;;;;;35.53;7.57;;;8.90;99.90;;;;;;5092262;28;20087;-74
2022/01/04 00:50:22;;;;;;;37.53;8.68;;;8.90;99.90;;;;;;5097140;28;20048;-76
2022/01/04 00:52:49;;;;;;;36.08;8.40;;;8.90;99.90;;;;;;5099136;28;20024;-75
2022/01/04 00:55:14;;;;;;;49.35;8.82;;;8.90;99.90;;;;;;5104267;28;20016;-77
2022/01/04 00:57:41;;;;;;;42.75;8.48;;;8.90;99.90;;;;;;5100580;28;20028;-77
2022/01/04 01:00:08;;;;;;;45.25;8.73;;;8.90;99.90;;;;;;5098681;28;20024;-76
2022/01/04 01:02:34;;;;;;;39.35;9.27;;;8.90;99.90;;;;;;5096728;28;20035;-76
2022/01/04 01:04:59;;;;;;;37.72;7.85;;;8.90;99.90;;;;;;5106820;28;20396;-77
2022/01/04 01:07:25;;;;;;;39.78;9.23;;;8.90;99.90;;;;;;5102696;28;20043;-75
2022/01/04 01:12:37;;;;;;;40.65;10.45;;;8.80;99.90;;;;;;5085165;28;20393;-77
2022/01/04 01:15:04;;;;;;;30.05;9.23;;;8.80;99.90;;;;;;5095704;28;20024;-77
2022/01/04 01:17:30;;;;;;;40.25;9.63;;;8.90;99.90;;;;;;5095068;28;20036;-75
2022/01/04 01:19:56;;;;;;;43.97;9.13;;;8.80;99.90;;;;;;5094158;28;20047;-77
2022/01/04 01:22:22;;;;;;;41.20;8.93;;;8.80;99.90;;;;;;5095156;28;20028;-76
2022/01/04 01:24:48;;;;;;;44.75;9.98;;;8.80;99.90;;;;;;5095299;28;20024;-77
2022/01/04 01:27:13;;;;;;;41.92;10.30;;;8.80;99.90;;;;;;5095563;28;20366;-77
2022/01/04 01:29:39;;;;;;;46.22;10.00;;;8.80;99.90;;;;;;5095274;28;20069;-77
2022/01/04 01:32:05;;;;;;;45.75;9.27;;;8.80;99.90;;;;;;5095439;28;20477;-77
2022/01/04 01:34:31;;;;;;;40.95;9.45;;;8.80;99.90;;;;;;5095349;28;20023;-75
2022/01/04 01:36:56;;;;;;;40.42;10.70;;;8.80;99.90;;;;;;5094080;28;20024;-75
2022/01/04 01:39:22;;;;;;;36.85;10.63;;;8.80;99.90;;;;;;5095016;28;20396;-77
2022/01/04 01:41:47;;;;;;;41.00;10.20;;;8.80;99.90;;;;;;5095019;28;20051;-77
2022/01/04 01:44:13;;;;;;;55.15;11.07;;;8.80;99.90;;;;;;5095097;28;20026;-77
2022/01/04 01:46:38;;;;;;;41.95;10.52;;;8.80;99.90;;;;;;5095696;28;20020;-76
2022/01/04 01:49:04;;;;;;;39.78;10.70;;;8.70;99.90;;;;;;5095974;28;20457;-76
2022/01/04 01:51:30;;;;;;;43.35;11.43;;;8.70;99.90;;;;;;5096311;28;20501;-75
2022/01/04 01:53:56;;;;;;;40.65;11.40;;;8.70;99.90;;;;;;5095991;28;20024;-77
2022/01/04 01:56:21;;;;;;;48.83;11.15;;;8.80;99.90;;;;;;5094741;28;20541;-75
2022/01/04 01:58:47;;;;;;;46.15;10.98;;;8.70;99.90;;;;;;5094639;28;20051;-75
2022/01/04 02:01:13;;;;;;;44.05;11.25;;;8.80;99.90;;;;;;5095066;28;20221;-76
2022/01/04 02:03:39;;;;;;;37.17;10.27;;;8.70;99.90;;;;;;5095022;28;20020;-77
2022/01/04 02:06:05;;;;;;;42.95;10.38;;;8.70;99.90;;;;;;5094541;28;20039;-77
2022/01/04 02:08:31;;;;;;;42.92;9.68;;;8.70;99.90;;;;;;5094536;28;20532;-75
2022/01/04 02:10:58;;;;;;;38.90;10.85;;;8.70;99.90;;;;;;5094910;28;20056;-77
2022/01/04 02:13:25;;;;;;;38.72;10.23;;;8.80;99.90;;;;;;5094493;28;20033;-77
2022/01/04 02:15:54;;;;;;;42.17;10.65;;;8.70;99.90;;;;;;5094408;28;20016;-76
2022/01/04 02:18:19;;;;;;;37.95;10.50;;;8.70;99.90;;;;;;5095475;28;20427;-76
2022/01/04 02:20:45;;;;;;;35.90;10.07;;;8.80;99.90;;;;;;5102559;28;20039;-75
2022/01/04 02:23:10;;;;;;;41.80;10.02;;;8.80;99.90;;;;;;5099004;28;20024;-76
2022/01/04 02:25:36;;;;;;;35.40;9.05;;;8.80;99.90;;;;;;5094344;28;20032;-76
2022/01/04 02:28:02;;;;;;;41.03;9.88;;;8.90;99.90;;;;;;5094238;28;20093;-76
2022/01/04 02:30:28;;;;;;;36.40;9.07;;;8.80;99.90;;;;;;5094037;28;20028;-75
2022/01/04 02:32:53;;;;;;;43.83;9.75;;;8.80;99.90;;;;;;5101658;28;20085;-75
2022/01/04 02:35:22;;;;;;;37.95;8.88;;;8.80;99.90;;;;;;5106955;28;20024;-76
2022/01/04 02:37:48;;;;;;;36.80;9.25;;;8.90;99.90;;;;;;5093745;28;20107;-77
2022/01/04 02:40:14;;;;;;;48.22;9.23;;;8.90;99.90;;;;;;5093952;28;20512;-76
2022/01/04 02:42:41;;;;;;;37.15;9.13;;;8.90;99.90;;;;;;5093716;28;20024;-77
2022/01/04 02:45:08;;;;;;;41.45;10.05;;;8.90;99.90;;;;;;5094294;28;20024;-78
2022/01/04 02:47:34;;;;;;;48.42;10.05;;;8.90;99.90;;;;;;5095029;28;20024;-77
2022/01/04 02:49:59;;;;;;;45.83;9.77;;;8.80;99.90;;;;;;5094558;28;20020;-77
2022/01/04 02:52:27;;;;;;;38.72;9.40;;;8.80;99.90;;;;;;5093350;28;20520;-77
2022/01/04 02:54:52;;;;;;;41.50;9.38;;;8.80;99.90;;;;;;5095713;28;20020;-79
2022/01/04 02:57:18;;;;;;;41.25;10.32;;;8.80;99.90;;;;;;5103271;28;20076;-79
2022/01/04 02:59:44;;;;;;;47.40;11.30;;;8.90;99.90;;;;;;5104728;28;20032;-78
2022/01/04 03:02:09;;;;;;;46.50;9.55;;;8.90;99.90;;;;;;5099926;28;20102;-77
2022/01/04 03:04:35;;;;;;;46.22;10.40;;;8.90;99.90;;;;;;5101490;28;20024;-79
2022/01/04 03:07:02;;;;;;;40.13;10.60;;;8.90;99.90;;;;;;5098405;28;20158;-78
2022/01/04 03:09:28;;;;;;;40.75;10.70;;;8.90;99.90;;;;;;5096962;28;20020;-79
2022/01/04 03:11:53;;;;;;;27.60;9.30;;;8.90;99.90;;;;;;5095276;28;20023;-77
2022/01/04 03:14:19;;;;;;;48.70;12.15;;;8.90;99.90;;;;;;5096846;28;20020;-79
2022/01/04 03:16:45;;;;;;;41.88;11.40;;;8.90;99.90;;;;;;5097873;28;20028;-77
2022/01/04 03:19:11;;;;;;;36.38;10.93;;;8.90;99.90;;;;;;5098637;28;20027;-79
2022/01/04 03:21:39;;;;;;;46.25;10.27;;;8.90;99.90;;;;;;5095446;28;20028;-76
2022/01/04 03:24:07;;;;;;;34.67;10.95;;;8.90;99.90;;;;;;5093058;28;20031;-77
2022/01/04 03:26:33;;;;;;;34.85;11.13;;;8.90;99.90;;;;;;5093570;28;20107;-77
2022/01/04 03:28:59;;;;;;;35.88;11.82;;;8.90;99.90;;;;;;5093318;28;20115;-77
2022/01/04 03:31:26;;;;;;;42.08;11.77;;;8.90;99.90;;;;;;5095729;28;20028;-78
2022/01/04 03:33:51;;;;;;;54.92;12.40;;;9.00;99.90;;;;;;5096879;28;20024;-77
2022/01/04 03:36:22;;;;;;;50.63;12.90;;;8.90;99.90;;;;;;5096728;28;20023;-77
2022/01/04 03:38:48;;;;;;;32.80;12.25;;;8.90;99.90;;;;;;5094172;28;20423;-78
2022/01/04 03:41:16;;;;;;;37.75;12.18;;;8.90;99.90;;;;;;5094396;28;20031;-77
2022/01/04 03:43:42;;;;;;;53.70;13.88;;;8.90;99.90;;;;;;5093578;28;20024;-76
2022/01/04 03:46:07;;;;;;;51.47;13.65;;;8.90;99.90;;;;;;5092385;28;20123;-75
2022/01/04 03:48:34;;;;;;;47.50;14.35;;;8.90;99.90;;;;;;5092679;28;20062;-75
2022/01/04 03:51:00;;;;;;;38.03;13.30;;;8.80;99.90;;;;;;5093988;28;20016;-77
2022/01/04 03:53:26;;;;;;;42.33;13.68;;;8.90;99.90;;;;;;5094130;28;20018;-75
2022/01/04 03:55:51;;;;;;;41.78;15.75;;;8.80;99.90;;;;;;5092626;28;20035;-76
2022/01/04 03:58:17;;;;;;;43.10;15.02;;;8.90;99.90;;;;;;5096722;28;20069;-76
2022/01/04 04:00:42;;;;;;;54.83;15.77;;;8.80;99.90;;;;;;5097182;28;20488;-74
2022/01/04 04:03:09;;;;;;;51.15;16.50;;;8.80;99.90;;;;;;5093006;28;20381;-75
2022/01/04 04:05:34;;;;;;;51.60;15.85;;;8.80;99.90;;;;;;5092813;28;20162;-76
2022/01/04 04:08:00;;;;;;;44.80;17.15;;;8.80;99.90;;;;;;5093799;28;20492;-76
2022/01/04 04:10:25;;;;;;;44.28;15.90;;;8.80;99.90;;;;;;5092676;28;20028;-75
2022/01/04 04:12:51;;;;;;;41.95;16.63;;;8.90;99.90;;;;;;5092652;28;20124;-76
2022/01/04 04:15:16;;;;;;;43.95;15.40;;;8.90;99.90;;;;;;5092374;28;20025;-76
2022/01/04 04:17:45;;;;;;;47.83;15.80;;;8.90;99.90;;;;;;5092918;28;20103;-77
2022/01/04 04:20:11;;;;;;;49.58;17.25;;;8.80;99.90;;;;;;5092953;28;20038;-77
2022/01/04 04:22:37;;;;;;;52.42;17.33;;;8.80;99.90;;;;;;5093971;28;20036;-77
2022/01/04 04:25:03;;;;;;;46.83;17.23;;;8.80;99.90;;;;;;5097844;28;20389;-76
2022/01/04 04:27:29;;;;;;;53.53;18.02;;;8.80;99.90;;;;;;5097736;28;20031;-76
2022/01/04 04:29:54;;;;;;;46.75;17.35;;;8.80;99.90;;;;;;5100316;28;20031;-76
2022/01/04 04:32:20;;;;;;;44.33;17.60;;;8.80;99.90;;;;;;5096151;28;20433;-76
2022/01/04 04:34:45;;;;;;;56.03;18.48;;;8.80;99.90;;;;;;5096862;28;20428;-77
2022/01/04 04:37:11;;;;;;;48.47;16.80;;;8.80;99.90;;;;;;5096584;28;20059;-74
2022/01/04 04:39:37;;;;;;;51.80;18.30;;;8.80;99.90;;;;;;5095555;28;20388;-74
2022/01/04 04:42:02;;;;;;;51.65;17.90;;;8.80;99.90;;;;;;5097135;28;20027;-79
2022/01/04 04:44:28;;;;;;;49.10;16.90;;;8.80;99.90;;;;;;5096810;28;20373;-76
2022/01/04 04:46:54;;;;;;;50.88;16.88;;;8.80;99.90;;;;;;5099566;28;20536;-75
2022/01/04 04:49:19;;;;;;;49.25;16.70;;;8.80;99.90;;;;;;5099715;28;20027;-75
2022/01/04 04:51:45;;;;;;;41.47;16.92;;;8.80;99.90;;;;;;5097433;28;20024;-75
2022/01/04 04:54:10;;;;;;;47.40;16.15;;;8.90;99.90;;;;;;5098422;28;20024;-76
2022/01/04 04:56:38;;;;;;;38.67;17.65;;;8.90;99.90;;;;;;5103598;28;20457;-75
2022/01/04 04:59:08;;;;;;;54.67;17.88;;;8.90;99.90;;;;;;5103635;28;20048;-77
2022/01/04 05:01:34;;;;;;;49.47;18.48;;;8.80;99.90;;;;;;5095201;28;20024;-78
2022/01/04 05:03:59;;;;;;;46.67;17.75;;;8.80;99.90;;;;;;5096676;28;20032;-76
2022/01/04 05:06:26;;;;;;;47.70;17.20;;;8.80;99.90;;;;;;5098137;28;20035;-77
2022/01/04 05:08:52;;;;;;;46.38;18.08;;;8.80;99.90;;;;;;5103383;28;20151;-76
2022/01/04 05:11:18;;;;;;;43.38;17.83;;;8.70;99.90;;;;;;5104332;28;20024;-76
2022/01/04 05:13:43;;;;;;;60.35;18.63;;;8.70;99.90;;;;;;5103337;28;20035;-76
2022/01/04 05:16:10;;;;;;;46.33;18.50;;;8.80;99.90;;;;;;5095576;28;20028;-76
2022/01/04 05:18:35;;;;;;;44.97;18.17;;;8.80;99.90;;;;;;5095935;28;20028;-76
2022/01/04 05:21:01;;;;;;;48.63;19.02;;;8.80;99.90;;;;;;5095619;28;20079;-77
2022/01/04 05:23:26;;;;;;;52.95;18.67;;;8.80;99.90;;;;;;5096363;28;20046;-76
2022/01/04 05:25:52;;;;;;;53.42;20.30;;;8.80;99.90;;;;;;5096821;28;20073;-76
2022/01/04 05:28:17;;;;;;;42.85;19.48;;;8.80;99.90;;;;;;5097855;28;20024;-76
2022/01/04 05:30:43;;;;;;;46.50;18.90;;;8.80;99.90;;;;;;5097696;28;20473;-76
2022/01/04 05:33:08;;;;;;;53.58;20.80;;;8.90;99.90;;;;;;5095282;28;20466;-76
2022/01/04 05:35:34;;;;;;;46.28;19.33;;;8.90;99.90;;;;;;5095122;28;20024;-76
2022/01/04 05:38:00;;;;;;;46.70;18.98;;;8.90;99.90;;;;;;5095841;28;20032;-73
2022/01/04 05:40:25;;;;;;;63.92;20.17;;;8.80;99.90;;;;;;5115921;28;20024;-75
2022/01/04 05:42:51;;;;;;;63.08;20.38;;;8.80;99.90;;;;;;5103008;28;20039;-75
2022/01/04 05:45:16;;;;;;;55.78;21.63;;;8.80;99.90;;;;;;5094904;28;20065;-75
2022/01/04 05:47:42;;;;;;;55.17;21.10;;;8.80;99.90;;;;;;5094965;28;20024;-75
2022/01/04 05:50:08;;;;;;;50.67;21.33;;;8.80;99.90;;;;;;5094393;28;20099;-76
2022/01/04 05:52:34;;;;;;;48.80;21.73;;;8.80;99.90;;;;;;5094589;28;20028;-75
2022/01/04 05:55:00;;;;;;;54.40;22.00;;;8.80;99.90;;;;;;5095763;28;20046;-77
2022/01/04 05:57:26;;;;;;;54.97;22.05;;;8.90;99.90;;;;;;5096222;28;20621;-77
2022/01/04 05:59:51;;;;;;;54.40;21.42;;;8.80;99.90;;;;;;5095896;28;20036;-76
2022/01/04 06:02:17;;;;;;;62.38;27.38;;;8.80;99.90;;;;;;5093706;28;20016;-76
2022/01/04 06:04:43;;;;;;;57.72;23.27;;;8.80;99.90;;;;;;5095454;28;20028;-77
2022/01/04 06:07:09;;;;;;;58.17;24.70;;;8.90;99.90;;;;;;5095699;28;20031;-77
2022/01/04 06:09:44;;;;;;;61.65;24.60;;;8.80;99.90;;;;;;5095457;28;20016;-77
2022/01/04 06:14:57;;;;;;;59.60;24.10;;;8.80;99.90;;;;;;5097949;28;20035;-77
2022/01/04 06:17:33;;;;;;;73.05;25.20;;;8.80;99.90;;;;;;5095465;28;20073;-76
2022/01/04 06:19:59;;;;;;;54.15;24.90;;;8.90;99.90;;;;;;5095065;28;20052;-75
2022/01/04 06:22:30;;;;;;;61.38;24.27;;;8.90;99.90;;;;;;5095585;28;20081;-75
2022/01/04 06:24:56;;;;;;;55.65;21.88;;;8.80;99.90;;;;;;5094678;28;20058;-75
2022/01/04 06:27:22;;;;;;;45.55;19.95;;;8.80;99.90;;;;;;5094162;28;20394;-76
2022/01/04 06:29:48;;;;;;;39.17;17.35;;;8.80;99.90;;;;;;5095146;28;20049;-76
2022/01/04 06:32:15;;;;;;;42.83;18.40;;;8.80;99.90;;;;;;5094641;28;20020;-76
2022/01/04 06:34:43;;;;;;;44.85;19.23;;;8.80;99.90;;;;;;5094119;28;20334;-76
2022/01/04 06:37:10;;;;;;;50.95;20.33;;;8.80;99.90;;;;;;5093774;28;20024;-74
2022/01/04 06:39:36;;;;;;;58.42;23.35;;;8.80;99.90;;;;;;5093921;28;20028;-74
2022/01/04 06:42:02;;;;;;;66.30;26.92;;;8.80;99.90;;;;;;5093725;28;20157;-76
2022/01/04 06:44:28;;;;;;;61.40;27.23;;;8.70;99.90;;;;;;5094648;28;20107;-76
2022/01/04 06:46:53;;;;;;;59.35;27.02;;;8.70;99.90;;;;;;5091092;28;20160;-75
2022/01/04 06:49:19;;;;;;;66.35;28.20;;;8.70;99.90;;;;;;5093491;28;20020;-75
2022/01/04 06:51:46;;;;;;;67.78;28.80;;;8.60;99.90;;;;;;5093396;28;20423;-74
2022/01/04 06:54:13;;;;;;;65.15;28.05;;;8.60;99.90;;;;;;5095363;28;20028;-76
2022/01/04 06:56:39;;;;;;;56.45;26.38;;;8.60;99.90;;;;;;5093427;28;20031;-77
2022/01/04 06:59:07;;;;;;;53.05;25.92;;;8.60;99.90;;;;;;5094348;28;20056;-76
2022/01/04 07:01:34;;;;;;;64.20;29.10;;;8.60;99.90;;;;;;5095984;28;20024;-75
2022/01/04 07:04:00;;;;;;;64.82;28.27;;;8.60;99.90;;;;;;5094777;28;20122;-76
2022/01/04 07:06:26;;;;;;;66.75;31.00;;;8.60;99.90;;;;;;5093784;28;20687;-76
2022/01/04 07:08:51;;;;;;;68.28;30.45;;;8.60;99.90;;;;;;5093611;28;20095;-76
2022/01/04 07:11:17;;;;;;;69.85;31.10;;;8.70;99.90;;;;;;5094611;28;20032;-77
2022/01/04 07:13:42;;;;;;;113.57;53.72;;;8.70;99.90;;;;;;5102749;28;20024;-75
2022/01/04 07:16:08;;;;;;;62.70;30.15;;;8.70;99.90;;;;;;5103252;28;20031;-76
2022/01/04 07:18:34;;;;;;;75.60;31.75;;;8.70;99.90;;;;;;5104975;28;20039;-76
2022/01/04 07:21:00;;;;;;;76.97;34.55;;;8.70;99.90;;;;;;5104071;28;20050;-74
2022/01/04 07:23:26;;;;;;;72.97;34.40;;;8.70;99.90;;;;;;5102078;28;20517;-75
2022/01/04 07:25:51;;;;;;;71.10;31.90;;;8.70;99.90;;;;;;5103455;28;20027;-76
2022/01/04 07:28:18;;;;;;;68.43;32.92;;;8.70;99.90;;;;;;5101461;28;20020;-78
2022/01/04 07:30:44;;;;;;;67.70;30.95;;;8.70;99.90;;;;;;5103702;28;20080;-76
2022/01/04 07:33:10;;;;;;;73.95;31.83;;;8.70;99.90;;;;;;5106140;28;20055;-76
2022/01/04 07:35:36;;;;;;;71.68;33.35;;;8.80;99.90;;;;;;5105572;28;20031;-75
2022/01/04 07:38:02;;;;;;;72.15;34.05;;;8.70;99.90;;;;;;5101661;28;20028;-75
2022/01/04 07:40:27;;;;;;;69.05;33.78;;;8.70;99.90;;;;;;5103824;28;20028;-76
2022/01/04 07:42:57;;;;;;;78.30;34.67;;;8.70;99.90;;;;;;5103513;28;20119;-76
2022/01/04 07:45:23;;;;;;;77.95;32.92;;;8.70;99.90;;;;;;5094037;28;20103;-76
2022/01/04 07:47:48;;;;;;;68.28;31.67;;;8.70;99.90;;;;;;5093745;28;20108;-77
2022/01/04 07:50:14;;;;;;;70.75;30.75;;;8.80;99.90;;;;;;5094246;28;20028;-75
2022/01/04 07:52:39;;;;;;;67.90;30.65;;;8.80;99.90;;;;;;5095564;28;20020;-77
2022/01/04 07:55:05;;;;;;;77.57;32.50;;;8.80;99.90;;;;;;5095420;28;20493;-76
2022/01/04 07:57:38;;;;;;;67.07;31.15;;;8.80;99.90;;;;;;5094003;28;20035;-78
2022/01/04 08:00:05;;;;;;;75.60;31.63;;;8.90;99.90;;;;;;5093299;28;20051;-76
2022/01/04 08:02:30;;;;;;;78.35;35.67;;;8.80;99.90;;;;;;5093398;28;20103;-76
2022/01/04 08:04:56;;;;;;;93.93;41.90;;;8.80;99.90;;;;;;5094002;28;20433;-75
2022/01/04 08:07:22;;;;;;;80.00;34.72;;;8.70;99.90;;;;;;5094296;28;20474;-76
2022/01/04 08:09:48;;;;;;;71.40;34.35;;;8.80;99.90;;;;;;5093524;28;20087;-75
2022/01/04 08:12:14;;;;;;;81.47;34.50;;;8.80;99.90;;;;;;5093568;28;20024;-76
2022/01/04 08:14:40;;;;;;;77.80;34.40;;;8.90;99.90;;;;;;5108204;28;20046;-77
2022/01/04 08:17:06;;;;;;;71.95;33.25;;;8.90;99.90;;;;;;5113867;28;20032;-76
2022/01/04 08:19:31;;;;;;;74.80;34.25;;;8.90;99.90;;;;;;5095068;28;20518;-77
2022/01/04 08:22:00;;;;;;;76.47;34.83;;;8.90;99.90;;;;;;5092484;28;20145;-76
2022/01/04 08:24:25;;;;;;;78.55;34.55;;;8.90;99.90;;;;;;5093109;28;20107;-76
2022/01/04 08:26:51;;;;;;;63.45;31.67;;;8.90;99.90;;;;;;5092654;28;20119;-75
2022/01/04 08:29:16;;;;;;;76.72;33.92;;;9.00;99.90;;;;;;5092642;28;20028;-76
2022/01/04 08:31:42;;;;;;;75.10;33.85;;;9.00;99.90;;;;;;5093113;28;20100;-76
2022/01/04 08:34:07;;;;;;;74.00;33.28;;;9.10;99.90;;;;;;5094846;28;20377;-76
2022/01/04 08:36:34;;;;;;;75.93;32.63;;;9.00;99.90;;;;;;5092284;28;20035;-76
2022/01/04 08:39:01;;;;;;;75.28;35.15;;;9.00;99.90;;;;;;5092468;28;20043;-75
2022/01/04 08:41:26;;;;;;;72.10;33.88;;;9.00;99.90;;;;;;5092290;28;20053;-77
2022/01/04 08:43:52;;;;;;;67.53;32.45;;;9.20;99.90;;;;;;5092873;28;20025;-77
2022/01/04 08:46:17;;;;;;;67.63;31.48;;;9.10;99.90;;;;;;5093686;28;20067;-76
2022/01/04 08:48:43;;;;;;;70.18;31.63;;;9.10;99.90;;;;;;5093799;28;20020;-76
2022/01/04 08:51:09;;;;;;;70.07;33.72;;;9.10;99.90;;;;;;5092871;28;20024;-77
2022/01/04 08:53:34;;;;;;;73.05;33.75;;;9.10;99.90;;;;;;5092673;28;20098;-76
2022/01/04 08:56:01;;;;;;;66.15;31.15;;;9.20;99.90;;;;;;5096003;28;20516;-77
2022/01/04 08:58:28;;;;;;;74.60;32.08;;;9.10;99.90;;;;;;5097523;28;20012;-76
2022/01/04 09:00:55;;;;;;;71.95;33.75;;;9.20;99.90;;;;;;5102744;28;20020;-76
2022/01/04 09:03:21;;;;;;;69.30;32.38;;;9.10;99.90;;;;;;5096869;28;20047;-77
2022/01/04 09:05:47;;;;;;;71.07;33.15;;;9.10;99.90;;;;;;5095915;28;20039;-78
2022/01/04 09:08:12;;;;;;;78.57;33.88;;;9.00;99.90;;;;;;5096346;28;20021;-77
2022/01/04 09:10:38;;;;;;;70.00;31.92;;;8.90;99.90;;;;;;5100713;28;20058;-75
2022/01/04 09:13:13;;;;;;;74.97;33.70;;;8.90;99.90;;;;;;5101798;28;20024;-77
2022/01/04 09:20:51;;;;;;;65.78;31.95;;;8.90;99.90;;;;;;5096335;28;20554;-76
2022/01/04 09:23:20;;;;;;;68.35;34.35;;;8.90;99.90;;;;;;5102933;28;20036;-77
2022/01/04 09:25:47;;;;;;;65.47;33.90;;;8.90;99.90;;;;;;5101195;28;20103;-76
2022/01/04 09:28:14;;;;;;;69.07;33.13;;;8.90;99.90;;;;;;5103210;28;20024;-76
2022/01/04 09:30:41;;;;;;;67.32;33.63;;;9.00;99.90;;;;;;5102463;28;20020;-75
2022/01/04 09:33:07;;;;;;;65.38;32.35;;;9.00;99.90;;;;;;5100280;28;20024;-76
2022/01/04 09:35:35;;;;;;;66.38;33.42;;;9.00;99.90;;;;;;5096391;28;20024;-77
2022/01/04 09:38:00;;;;;;;63.10;33.35;;;9.00;99.90;;;;;;5097674;28;20020;-77
2022/01/04 09:40:27;;;;;;;82.75;43.95;;;9.10;99.90;;;;;;5100188;28;20085;-76
2022/01/04 09:42:54;;;;;;;57.72;31.65;;;9.10;99.90;;;;;;5102855;28;20039;-77
2022/01/04 09:45:19;;;;;;;63.25;31.77;;;9.10;99.90;;;;;;5100104;28;20020;-76
2022/01/04 09:47:46;;;;;;;58.30;31.08;;;9.10;99.90;;;;;;5098017;28;20054;-78
2022/01/04 09:50:11;;;;;;;60.10;29.25;;;9.10;99.90;;;;;;5100839;28;20024;-77
2022/01/04 09:52:43;;;;;;;55.53;29.70;;;9.20;99.90;;;;;;5101842;28;20090;-77
2022/01/04 09:55:12;;;;;;;53.53;29.17;;;9.20;99.90;;;;;;5102749;28;20016;-77
2022/01/04 09:57:38;;;;;;;63.30;28.77;;;9.20;99.90;;;;;;5102365;28;20537;-78
2022/01/04 10:00:05;;;;;;;63.45;30.20;;;9.20;99.90;;;;;;5101421;28;20051;-76
2022/01/04 10:02:31;;;;;;;57.92;30.38;;;9.20;99.90;;;;;;5101547;28;20349;-78
2022/01/04 10:05:13;;;;;;;61.03;30.27;;;9.20;99.90;;;;;;5104344;28;20024;-77
2022/01/04 10:07:39;;;;;;;61.15;29.48;;;9.20;99.90;;;;;;5102488;28;20020;-78
2022/01/04 10:10:08;;;;;;;52.20;29.35;;;9.20;99.90;;;;;;5109147;28;20319;-77
2022/01/04 10:12:52;;;;;;;58.97;30.10;;;9.10;99.90;;;;;;5104667;28;20020;-77
2022/01/04 10:15:47;;;;;;;65.88;32.17;;;9.20;99.90;;;;;;5101932;28;20023;-77
2022/01/04 10:18:13;;;;;;;58.70;30.63;;;9.10;99.90;;;;;;5105345;28;20073;-77
2022/01/04 10:20:43;;;;;;;50.03;27.50;;;9.20;99.90;;;;;;5106715;28;20052;-78
2022/01/04 10:23:18;;;;;;;60.42;29.27;;;9.10;99.90;;;;;;5106665;28;20389;-78
2022/01/04 10:25:45;;;;;;;60.35;28.73;;;9.10;99.90;;;;;;5105203;28;20032;-77
2022/01/04 10:28:12;;;;;;;64.70;31.25;;;9.10;99.90;;;;;;5100089;28;20584;-80
2022/01/04 10:30:42;;;;;;;58.10;30.33;;;9.20;99.90;;;;;;5097456;28;20081;-77
2022/01/04 10:33:22;;;;;;;69.30;35.50;;;9.10;99.90;;;;;;5096708;28;20419;-77
2022/01/04 10:35:49;;;;;;;69.10;35.58;;;9.10;99.90;;;;;;5103093;28;20016;-77
2022/01/04 10:38:17;;;;;;;61.15;31.55;;;9.10;99.90;;;;;;5101416;28;20023;-76
2022/01/04 10:41:05;;;;;;;58.33;31.77;;;9.10;99.90;;;;;;5099377;28;20027;-76
2022/01/04 10:43:40;;;;;;;57.05;29.65;;;9.10;99.90;;;;;;5107007;28;20028;-80
2022/01/04 10:46:07;;;;;;;52.42;29.27;;;9.20;99.90;;;;;;5108222;28;20060;-75
2022/01/04 10:48:36;;;;;;;60.03;27.98;;;9.20;99.90;;;;;;5101878;28;20112;-74
2022/01/04 10:51:16;;;;;;;53.90;25.65;;;9.20;99.90;;;;;;5098194;28;20047;-77
2022/01/04 10:53:45;;;;;;;54.72;24.50;;;9.20;99.90;;;;;;5098439;28;20507;-77
2022/01/04 10:56:15;;;;;;;45.85;24.38;;;9.30;99.90;;;;;;5101169;28;20028;-80
2022/01/04 10:58:50;;;;;;;48.10;24.10;;;9.30;99.90;;;;;;5100062;28;20023;-78
2022/01/04 11:01:21;;;;;;;49.67;25.45;;;9.30;99.90;;;;;;5099724;28;20068;-76
2022/01/04 11:03:50;;;;;;;50.33;23.45;;;9.20;99.90;;;;;;5098771;28;20106;-78
2022/01/04 11:06:28;;;;;;;44.58;23.13;;;9.20;99.90;;;;;;5100068;28;20481;-78
2022/01/04 11:08:54;;;;;;;50.28;21.92;;;9.20;99.90;;;;;;5097587;28;20024;-77
2022/01/04 11:11:21;;;;;;;41.08;21.60;;;9.20;99.90;;;;;;5100229;28;20020;-78
2022/01/04 11:13:48;;;;;;;42.72;19.25;;;9.20;99.90;;;;;;5099989;28;20024;-77
2022/01/04 11:16:14;;;;;;;40.28;18.67;;;9.20;99.90;;;;;;5097567;28;20024;-77
2022/01/04 11:18:46;;;;;;;34.17;16.25;;;9.20;99.90;;;;;;5101131;28;20055;-75
2022/01/04 11:21:14;;;;;;;32.30;16.20;;;9.20;99.90;;;;;;5104726;28;20028;-76
2022/01/04 11:23:41;;;;;;;34.85;17.60;;;9.20;99.90;;;;;;5108013;28;20024;-77
2022/01/04 11:26:09;;;;;;;32.58;15.70;;;9.10;99.90;;;;;;5100701;28;20054;-76
2022/01/04 11:28:40;;;;;;;37.00;16.67;;;9.20;99.90;;;;;;5099670;28;20016;-79
2022/01/04 11:31:30;;;;;;;38.65;16.92;;;9.20;99.90;;;;;;5095231;28;20031;-76
2022/01/04 11:34:14;;;;;;;32.00;15.90;;;9.10;99.90;;;;;;5099324;28;20020;-78
2022/01/04 11:36:42;;;;;;;33.22;15.73;;;9.10;99.90;;;;;;5094381;28;20091;-76
2022/01/04 11:39:32;;;;;;;25.30;13.00;;;9.20;99.90;;;;;;5094356;28;20047;-77
2022/01/04 11:42:01;;;;;;;22.52;11.85;;;9.10;99.90;;;;;;5095079;28;20028;-77
2022/01/04 11:44:28;;;;;;;25.38;11.57;;;9.10;99.90;;;;;;5095580;28;20020;-76
2022/01/04 11:47:04;;;;;;;23.15;9.65;;;9.00;99.90;;;;;;5097596;28;20031;-77
2022/01/04 11:49:30;;;;;;;25.08;8.00;;;9.00;99.90;;;;;;5098926;28;20391;-78
2022/01/04 11:51:56;;;;;;;20.35;7.63;;;9.00;99.90;;;;;;5100771;28;20031;-78
2022/01/04 11:54:26;;;;;;;21.60;5.90;;;8.90;99.90;;;;;;5098589;28;20045;-78
2022/01/04 11:57:00;;;;;;;20.27;5.40;;;8.90;99.90;;;;;;5099112;28;20035;-77
2022/01/04 11:59:32;;;;;;;17.10;4.88;;;8.90;99.90;;;;;;5100976;28;20031;-77
2022/01/04 12:02:26;;;;;;;18.50;5.07;;;8.80;99.90;;;;;;5098441;28;20069;-78
2022/01/04 12:04:57;;;;;;;17.48;4.53;;;8.70;99.90;;;;;;5095612;28;20052;-76
2022/01/04 12:07:53;;;;;;;18.08;4.45;;;8.70;99.90;;;;;;5098561;28;20038;-74
2022/01/04 12:10:21;;;;;;;14.52;4.68;;;8.60;99.90;;;;;;5091308;28;20028;-76
2022/01/04 12:13:12;;;;;;;17.25;5.03;;;8.60;99.90;;;;;;5093503;28;20051;-76
2022/01/04 12:15:37;;;;;;;8.10;2.55;;;8.70;99.90;;;;;;5096576;28;20023;-76
2022/01/04 12:18:09;;;;;;;6.70;2.30;;;8.70;99.90;;;;;;5099320;28;20032;-75
2022/01/04 12:20:52;;;;;;;9.23;2.50;;;8.60;99.90;;;;;;5100219;28;20028;-78
2022/01/04 12:23:26;;;;;;;5.88;2.10;;;8.50;99.90;;;;;;5099640;28;20099;-78
2022/01/04 12:26:14;;;;;;;6.93;1.70;;;8.50;99.90;;;;;;5101356;28;20038;-77
2022/01/04 12:28:41;;;;;;;10.82;2.63;;;8.60;99.90;;;;;;5100386;28;20050;-78
2022/01/04 12:31:13;;;;;;;9.98;3.88;;;8.60;99.90;;;;;;5099512;28;20031;-76
2022/01/04 12:33:40;;;;;;;5.90;1.98;;;8.60;99.90;;;;;;5090553;28;20024;-78
2022/01/04 12:36:06;;;;;;;5.70;1.70;;;8.50;99.90;;;;;;5104295;28;20115;-79
2022/01/04 12:38:33;;;;;;;4.00;1.38;;;8.40;99.90;;;;;;5103366;28;20051;-77
2022/01/04 12:41:01;;;;;;;4.93;1.40;;;8.40;99.90;;;;;;5103664;28;20051;-78
2022/01/04 12:43:27;;;;;;;6.78;1.80;;;8.30;99.90;;;;;;5106024;28;20016;-77
2022/01/04 12:46:01;;;;;;;7.88;1.60;;;8.30;99.90;;;;;;5104105;28;20039;-77
2022/01/04 12:48:50;;;;;;;6.35;1.20;;;8.40;99.90;;;;;;5108932;28;20403;-78
2022/01/04 12:51:34;;;;;;;3.65;1.63;;;8.40;99.90;;;;;;5106065;28;20028;-77
2022/01/04 12:54:15;;;;;;;7.88;2.42;;;8.30;99.90;;;;;;5106827;28;20091;-79
2022/01/04 12:56:43;;;;;;;3.85;1.90;;;8.30;99.90;;;;;;5107776;28;20024;-76